sensor_id;sensor_type;location;lat;lon;timestamp;pressure;altitude;pressure_sealevel;temperature;humidity
25855;BME280;13680;49.936;11.344;2023-03-25T00:01:02;95942.28;;;9.47;87.26
25855;BME280;13680;49.936;11.344;2023-03-25T00:03:30;95926.81;;;9.61;86.96
25855;BME280;13680;49.936;11.344;2023-03-25T00:05:59;95914.34;;;9.48;86.19
25855;BME280;13680;49.936;11.344;2023-03-25T00:08:25;95938.44;;;9.30;87.48
25855;BME280;13680;49.936;11.344;2023-03-25T00:10:56;95924.94;;;9.53;86.08
25855;BME280;13680;49.936;11.344;2023-03-25T00:13:22;95908.19;;;9.56;86.33
25855;BME280;13680;49.936;11.344;2023-03-25T00:15:48;95900.63;;;9.58;86.27
25855;BME280;13680;49.936;11.344;2023-03-25T00:18:17;95898.66;;;9.32;87.36
25855;BME280;13680;49.936;11.344;2023-03-25T00:20:43;95902.50;;;9.58;86.35
25855;BME280;13680;49.936;11.344;2023-03-25T00:23:11;95908.00;;;9.53;86.70
25855;BME280;13680;49.936;11.344;2023-03-25T00:25:37;95896.97;;;9.54;86.04
25855;BME280;13680;49.936;11.344;2023-03-25T00:28:02;95897.78;;;9.55;86.28
25855;BME280;13680;49.936;11.344;2023-03-25T00:30:27;95893.81;;;9.52;85.57
25855;BME280;13680;49.936;11.344;2023-03-25T00:32:52;95881.31;;;9.47;86.17
25855;BME280;13680;49.936;11.344;2023-03-25T00:35:19;95879.91;;;9.50;85.96
25855;BME280;13680;49.936;11.344;2023-03-25T00:37:45;95881.19;;;9.53;85.63
25855;BME280;13680;49.936;11.344;2023-03-25T00:40:12;95884.81;;;9.48;85.10
25855;BME280;13680;49.936;11.344;2023-03-25T00:42:38;95888.91;;;9.45;85.58
25855;BME280;13680;49.936;11.344;2023-03-25T00:45:14;95885.59;;;9.40;85.08
25855;BME280;13680;49.936;11.344;2023-03-25T00:47:40;95881.94;;;9.36;84.79
25855;BME280;13680;49.936;11.344;2023-03-25T00:50:06;95884.63;;;9.36;85.06
25855;BME280;13680;49.936;11.344;2023-03-25T00:52:31;95878.47;;;9.35;84.67
25855;BME280;13680;49.936;11.344;2023-03-25T00:54:56;95872.78;;;9.28;84.67
25855;BME280;13680;49.936;11.344;2023-03-25T00:57:22;95863.28;;;9.22;84.75
25855;BME280;13680;49.936;11.344;2023-03-25T00:59:47;95838.84;;;9.23;85.36
25855;BME280;13680;49.936;11.344;2023-03-25T01:02:13;95842.94;;;9.21;85.02
25855;BME280;13680;49.936;11.344;2023-03-25T01:04:41;95848.78;;;9.23;85.17
25855;BME280;13680;49.936;11.344;2023-03-25T01:07:10;95860.28;;;9.14;85.36
25855;BME280;13680;49.936;11.344;2023-03-25T01:09:35;95870.81;;;9.11;85.61
25855;BME280;13680;49.936;11.344;2023-03-25T01:12:01;95855.38;;;9.08;85.99
25855;BME280;13680;49.936;11.344;2023-03-25T01:14:26;95859.16;;;9.07;86.33
25855;BME280;13680;49.936;11.344;2023-03-25T01:16:53;95868.44;;;9.00;86.57
25855;BME280;13680;49.936;11.344;2023-03-25T01:19:19;95859.16;;;9.07;87.48
25855;BME280;13680;49.936;11.344;2023-03-25T01:21:45;95858.22;;;9.11;87.32
25855;BME280;13680;49.936;11.344;2023-03-25T01:24:12;95851.59;;;9.09;88.23
25855;BME280;13680;49.936;11.344;2023-03-25T01:26:40;95865.19;;;9.12;88.73
25855;BME280;13680;49.936;11.344;2023-03-25T01:29:08;95867.88;;;9.21;88.25
25855;BME280;13680;49.936;11.344;2023-03-25T01:31:34;95869.78;;;9.29;87.80
25855;BME280;13680;49.936;11.344;2023-03-25T01:33:59;95859.22;;;9.33;87.55
25855;BME280;13680;49.936;11.344;2023-03-25T01:36:25;95860.00;;;9.33;87.18
25855;BME280;13680;49.936;11.344;2023-03-25T01:38:54;95855.56;;;9.20;88.44
25855;BME280;13680;49.936;11.344;2023-03-25T01:41:20;95861.53;;;9.17;90.01
25855;BME280;13680;49.936;11.344;2023-03-25T01:44:08;95852.25;;;9.23;89.39
25855;BME280;13680;49.936;11.344;2023-03-25T01:46:36;95852.09;;;9.28;88.99
25855;BME280;13680;49.936;11.344;2023-03-25T01:49:05;95859.69;;;9.35;88.70
25855;BME280;13680;49.936;11.344;2023-03-25T01:51:35;95839.78;;;9.27;88.62
25855;BME280;13680;49.936;11.344;2023-03-25T01:54:02;95833.81;;;9.39;88.30
25855;BME280;13680;49.936;11.344;2023-03-25T01:56:32;95830.81;;;9.32;88.14
25855;BME280;13680;49.936;11.344;2023-03-25T01:59:00;95835.06;;;9.24;88.81
25855;BME280;13680;49.936;11.344;2023-03-25T02:01:27;95833.75;;;9.04;90.62
25855;BME280;13680;49.936;11.344;2023-03-25T02:03:56;95836.31;;;9.18;89.69
25855;BME280;13680;49.936;11.344;2023-03-25T02:06:34;95833.66;;;9.36;88.10
25855;BME280;13680;49.936;11.344;2023-03-25T02:09:04;95832.56;;;9.45;88.17
25855;BME280;13680;49.936;11.344;2023-03-25T02:11:31;95817.72;;;9.48;87.59
25855;BME280;13680;49.936;11.344;2023-03-25T02:13:59;95816.31;;;9.42;87.98
25855;BME280;13680;49.936;11.344;2023-03-25T02:16:34;95805.88;;;9.49;87.67
25855;BME280;13680;49.936;11.344;2023-03-25T02:24:31;95809.19;;;9.46;87.87
25855;BME280;13680;49.936;11.344;2023-03-25T02:27:44;95807.75;;;9.31;87.61
25855;BME280;13680;49.936;11.344;2023-03-25T02:30:29;95811.25;;;9.49;87.78
25855;BME280;13680;49.936;11.344;2023-03-25T02:35:41;95811.56;;;9.39;87.51
25855;BME280;13680;49.936;11.344;2023-03-25T02:44:02;95813.72;;;9.01;89.48
25855;BME280;13680;49.936;11.344;2023-03-25T02:46:27;95802.69;;;9.12;88.56
25855;BME280;13680;49.936;11.344;2023-03-25T02:49:20;95804.75;;;9.32;87.87
25855;BME280;13680;49.936;11.344;2023-03-25T02:54:36;95805.25;;;9.34;86.37
25855;BME280;13680;49.936;11.344;2023-03-25T02:57:04;95802.25;;;9.36;86.69
25855;BME280;13680;49.936;11.344;2023-03-25T02:59:32;95805.41;;;9.29;87.34
25855;BME280;13680;49.936;11.344;2023-03-25T03:02:04;95818.81;;;9.38;86.63
25855;BME280;13680;49.936;11.344;2023-03-25T03:04:42;95816.91;;;9.12;86.56
25855;BME280;13680;49.936;11.344;2023-03-25T03:07:08;95803.63;;;9.07;86.75
25855;BME280;13680;49.936;11.344;2023-03-25T03:09:38;95811.31;;;8.91;88.54
25855;BME280;13680;49.936;11.344;2023-03-25T03:12:30;95809.91;;;8.94;88.21
25855;BME280;13680;49.936;11.344;2023-03-25T03:15:29;95816.19;;;8.80;88.77
25855;BME280;13680;49.936;11.344;2023-03-25T03:24:01;95824.66;;;9.31;85.31
25855;BME280;13680;49.936;11.344;2023-03-25T03:26:41;95820.50;;;9.08;86.07
25855;BME280;13680;49.936;11.344;2023-03-25T03:29:16;95825.41;;;9.14;84.40
25855;BME280;13680;49.936;11.344;2023-03-25T03:31:48;95838.09;;;8.82;85.61
25855;BME280;13680;49.936;11.344;2023-03-25T03:34:27;95841.50;;;8.65;85.60
25855;BME280;13680;49.936;11.344;2023-03-25T03:36:56;95842.19;;;8.80;85.50
25855;BME280;13680;49.936;11.344;2023-03-25T03:39:30;95853.03;;;9.15;83.20
25855;BME280;13680;49.936;11.344;2023-03-25T03:42:01;95842.63;;;8.64;85.17
25855;BME280;13680;49.936;11.344;2023-03-25T03:44:32;95840.34;;;8.49;84.92
25855;BME280;13680;49.936;11.344;2023-03-25T03:47:04;95836.94;;;8.66;85.14
25855;BME280;13680;49.936;11.344;2023-03-25T03:49:37;95838.66;;;9.02;83.59
25855;BME280;13680;49.936;11.344;2023-03-25T03:52:16;95842.63;;;8.64;83.83
25855;BME280;13680;49.936;11.344;2023-03-25T03:54:49;95858.97;;;8.09;86.83
25855;BME280;13680;49.936;11.344;2023-03-25T03:57:25;95849.97;;;8.27;86.87
25855;BME280;13680;49.936;11.344;2023-03-25T04:03:15;95832.16;;;8.94;84.16
25855;BME280;13680;49.936;11.344;2023-03-25T04:05:47;95843.38;;;9.05;83.23
25855;BME280;13680;49.936;11.344;2023-03-25T04:08:36;95853.25;;;8.87;84.07
25855;BME280;13680;49.936;11.344;2023-03-25T04:11:09;95846.63;;;8.84;85.03
25855;BME280;13680;49.936;11.344;2023-03-25T04:13:39;95847.00;;;9.09;82.88
25855;BME280;13680;49.936;11.344;2023-03-25T04:16:06;95848.94;;;9.17;83.39
25855;BME280;13680;49.936;11.344;2023-03-25T04:18:32;95841.84;;;9.22;82.88
25855;BME280;13680;49.936;11.344;2023-03-25T04:20:58;95846.38;;;8.32;87.36
25855;BME280;13680;49.936;11.344;2023-03-25T04:23:26;95847.22;;;8.73;86.92
25855;BME280;13680;49.936;11.344;2023-03-25T04:25:54;95838.22;;;8.68;86.75
25855;BME280;13680;49.936;11.344;2023-03-25T04:28:20;95831.38;;;9.03;85.22
25855;BME280;13680;49.936;11.344;2023-03-25T04:30:45;95839.00;;;9.18;84.62
25855;BME280;13680;49.936;11.344;2023-03-25T04:33:12;95832.75;;;8.82;85.14
25855;BME280;13680;49.936;11.344;2023-03-25T04:35:39;95815.72;;;8.87;86.28
25855;BME280;13680;49.936;11.344;2023-03-25T04:38:08;95811.19;;;9.05;85.14
25855;BME280;13680;49.936;11.344;2023-03-25T04:40:33;95815.44;;;8.97;85.13
25855;BME280;13680;49.936;11.344;2023-03-25T04:42:58;95812.41;;;8.90;85.37
25855;BME280;13680;49.936;11.344;2023-03-25T04:45:24;95818.03;;;8.71;87.18
25855;BME280;13680;49.936;11.344;2023-03-25T04:47:50;95812.88;;;8.43;86.85
25855;BME280;13680;49.936;11.344;2023-03-25T04:50:27;95817.41;;;8.65;87.97
25855;BME280;13680;49.936;11.344;2023-03-25T04:52:53;95818.00;;;8.62;86.87
25855;BME280;13680;49.936;11.344;2023-03-25T04:55:22;95814.50;;;8.53;87.93
25855;BME280;13680;49.936;11.344;2023-03-25T04:57:49;95814.78;;;8.83;86.03
25855;BME280;13680;49.936;11.344;2023-03-25T05:00:20;95811.41;;;8.68;86.07
25855;BME280;13680;49.936;11.344;2023-03-25T05:02:48;95810.53;;;8.91;84.95
25855;BME280;13680;49.936;11.344;2023-03-25T05:05:16;95820.34;;;8.55;85.73
25855;BME280;13680;49.936;11.344;2023-03-25T05:07:49;95826.28;;;8.43;85.23
25855;BME280;13680;49.936;11.344;2023-03-25T05:10:17;95816.72;;;7.97;87.40
25855;BME280;13680;49.936;11.344;2023-03-25T05:12:43;95816.91;;;8.32;86.17
25855;BME280;13680;49.936;11.344;2023-03-25T05:15:09;95842.44;;;8.29;85.99
25855;BME280;13680;49.936;11.344;2023-03-25T05:17:35;95841.94;;;8.27;85.25
25855;BME280;13680;49.936;11.344;2023-03-25T05:20:00;95847.94;;;8.01;87.15
25855;BME280;13680;49.936;11.344;2023-03-25T05:22:26;95846.09;;;7.88;87.12
25855;BME280;13680;49.936;11.344;2023-03-25T05:24:51;95847.44;;;7.99;86.86
25855;BME280;13680;49.936;11.344;2023-03-25T05:27:18;95848.88;;;7.83;87.56
25855;BME280;13680;49.936;11.344;2023-03-25T05:29:44;95824.03;;;7.82;86.78
25855;BME280;13680;49.936;11.344;2023-03-25T05:32:10;95848.28;;;7.63;87.50
25855;BME280;13680;49.936;11.344;2023-03-25T05:34:38;95855.53;;;8.08;84.93
25855;BME280;13680;49.936;11.344;2023-03-25T05:37:03;95857.41;;;7.85;84.61
25855;BME280;13680;49.936;11.344;2023-03-25T05:39:29;95866.41;;;8.12;84.29
25855;BME280;13680;49.936;11.344;2023-03-25T05:41:55;95864.47;;;8.03;83.72
25855;BME280;13680;49.936;11.344;2023-03-25T05:44:27;95864.56;;;8.21;83.76
25855;BME280;13680;49.936;11.344;2023-03-25T05:46:52;95882.66;;;8.15;84.36
25855;BME280;13680;49.936;11.344;2023-03-25T05:49:18;95881.97;;;8.32;82.95
25855;BME280;13680;49.936;11.344;2023-03-25T05:51:43;95874.63;;;8.15;83.70
25855;BME280;13680;49.936;11.344;2023-03-25T05:54:09;95875.16;;;8.03;83.19
25855;BME280;13680;49.936;11.344;2023-03-25T05:56:35;95880.22;;;7.46;84.98
25855;BME280;13680;49.936;11.344;2023-03-25T05:59:01;95892.47;;;7.61;84.19
25855;BME280;13680;49.936;11.344;2023-03-25T06:01:28;95887.88;;;7.75;83.86
25855;BME280;13680;49.936;11.344;2023-03-25T06:03:54;95881.81;;;7.83;83.85
25855;BME280;13680;49.936;11.344;2023-03-25T06:06:19;95892.75;;;7.96;82.92
25855;BME280;13680;49.936;11.344;2023-03-25T06:08:47;95893.38;;;8.15;81.95
25855;BME280;13680;49.936;11.344;2023-03-25T06:11:17;95899.59;;;7.65;83.13
25855;BME280;13680;49.936;11.344;2023-03-25T06:13:44;95904.72;;;7.76;82.68
25855;BME280;13680;49.936;11.344;2023-03-25T06:16:16;95899.50;;;7.93;81.41
25855;BME280;13680;49.936;11.344;2023-03-25T06:18:43;95904.72;;;7.76;82.60
25855;BME280;13680;49.936;11.344;2023-03-25T06:21:08;95901.81;;;7.86;81.40
25855;BME280;13680;49.936;11.344;2023-03-25T06:23:35;95911.56;;;7.68;81.32
25855;BME280;13680;49.936;11.344;2023-03-25T06:26:03;95904.78;;;7.62;81.12
25855;BME280;13680;49.936;11.344;2023-03-25T06:28:29;95899.09;;;8.00;79.28
25855;BME280;13680;49.936;11.344;2023-03-25T06:30:55;95891.06;;;8.00;80.52
25855;BME280;13680;49.936;11.344;2023-03-25T06:33:21;95903.41;;;8.10;78.90
25855;BME280;13680;49.936;11.344;2023-03-25T06:35:47;95905.78;;;7.89;78.44
25855;BME280;13680;49.936;11.344;2023-03-25T06:38:19;95909.84;;;7.86;78.89
25855;BME280;13680;49.936;11.344;2023-03-25T06:40:48;95914.66;;;7.98;79.00
25855;BME280;13680;49.936;11.344;2023-03-25T06:43:13;95921.31;;;8.00;78.37
25855;BME280;13680;49.936;11.344;2023-03-25T06:45:38;95920.81;;;7.62;79.39
25855;BME280;13680;49.936;11.344;2023-03-25T06:48:04;95925.31;;;8.12;77.11
25855;BME280;13680;49.936;11.344;2023-03-25T06:50:30;95928.66;;;8.17;76.43
25855;BME280;13680;49.936;11.344;2023-03-25T06:52:57;95935.31;;;7.97;76.90
25855;BME280;13680;49.936;11.344;2023-03-25T06:55:22;95930.00;;;8.29;76.90
25855;BME280;13680;49.936;11.344;2023-03-25T06:57:47;95934.06;;;8.03;77.79
25855;BME280;13680;49.936;11.344;2023-03-25T07:00:13;95933.13;;;8.45;76.47
25855;BME280;13680;49.936;11.344;2023-03-25T07:02:39;95932.38;;;8.30;75.32
25855;BME280;13680;49.936;11.344;2023-03-25T07:05:05;95936.78;;;8.72;74.52
25855;BME280;13680;49.936;11.344;2023-03-25T07:07:31;95930.81;;;8.29;74.97
25855;BME280;13680;49.936;11.344;2023-03-25T07:09:56;95939.66;;;8.52;74.57
25855;BME280;13680;49.936;11.344;2023-03-25T07:12:22;95940.56;;;8.48;76.31
25855;BME280;13680;49.936;11.344;2023-03-25T07:14:52;95947.94;;;8.65;74.98
25855;BME280;13680;49.936;11.344;2023-03-25T07:17:17;95939.84;;;7.97;76.93
25855;BME280;13680;49.936;11.344;2023-03-25T07:19:43;95938.59;;;8.17;77.97
25855;BME280;13680;49.936;11.344;2023-03-25T07:22:08;95953.28;;;8.42;77.03
25855;BME280;13680;49.936;11.344;2023-03-25T07:24:34;95945.22;;;7.83;80.01
25855;BME280;13680;49.936;11.344;2023-03-25T07:26:59;95947.47;;;8.26;79.60
25855;BME280;13680;49.936;11.344;2023-03-25T07:29:25;95937.44;;;8.55;79.12
25855;BME280;13680;49.936;11.344;2023-03-25T07:31:50;95947.81;;;8.79;78.28
25855;BME280;13680;49.936;11.344;2023-03-25T07:34:15;95952.50;;;8.96;76.50
25855;BME280;13680;49.936;11.344;2023-03-25T07:36:41;95947.91;;;8.42;79.50
25855;BME280;13680;49.936;11.344;2023-03-25T07:39:06;95951.66;;;8.55;78.90
25855;BME280;13680;49.936;11.344;2023-03-25T07:41:32;95950.66;;;8.28;80.71
25855;BME280;13680;49.936;11.344;2023-03-25T07:43:57;95955.09;;;8.56;79.50
25855;BME280;13680;49.936;11.344;2023-03-25T07:46:22;95946.91;;;8.83;79.64
25855;BME280;13680;49.936;11.344;2023-03-25T07:48:47;95943.53;;;8.69;78.93
25855;BME280;13680;49.936;11.344;2023-03-25T07:51:13;95949.31;;;8.62;80.46
25855;BME280;13680;49.936;11.344;2023-03-25T07:53:38;95955.88;;;8.79;79.79
25855;BME280;13680;49.936;11.344;2023-03-25T07:56:06;95952.81;;;8.63;79.68
25855;BME280;13680;49.936;11.344;2023-03-25T07:58:32;95960.13;;;8.48;80.79
25855;BME280;13680;49.936;11.344;2023-03-25T08:00:58;95959.53;;;8.83;79.32
25855;BME280;13680;49.936;11.344;2023-03-25T08:03:23;95968.09;;;8.94;79.25
25855;BME280;13680;49.936;11.344;2023-03-25T08:05:49;95970.41;;;8.55;80.42
25855;BME280;13680;49.936;11.344;2023-03-25T08:08:15;95966.16;;;8.17;81.31
25855;BME280;13680;49.936;11.344;2023-03-25T08:10:44;95965.56;;;8.43;81.10
25855;BME280;13680;49.936;11.344;2023-03-25T08:13:11;95952.00;;;8.40;80.54
25855;BME280;13680;49.936;11.344;2023-03-25T08:15:38;95957.97;;;8.59;80.88
25855;BME280;13680;49.936;11.344;2023-03-25T08:18:04;95963.16;;;8.56;79.48
25855;BME280;13680;49.936;11.344;2023-03-25T08:20:31;95964.69;;;8.48;80.27
25855;BME280;13680;49.936;11.344;2023-03-25T08:22:56;95957.84;;;8.64;80.34
25855;BME280;13680;49.936;11.344;2023-03-25T08:25:23;95949.59;;;8.83;79.59
25855;BME280;13680;49.936;11.344;2023-03-25T08:27:48;95961.00;;;8.44;80.56
25855;BME280;13680;49.936;11.344;2023-03-25T08:30:14;95954.34;;;8.55;80.66
25855;BME280;13680;49.936;11.344;2023-03-25T08:32:40;95950.97;;;8.27;79.92
25855;BME280;13680;49.936;11.344;2023-03-25T08:35:06;95957.31;;;8.85;78.96
25855;BME280;13680;49.936;11.344;2023-03-25T08:37:32;95954.16;;;8.51;79.39
25855;BME280;13680;49.936;11.344;2023-03-25T08:40:03;95961.06;;;9.07;76.98
25855;BME280;13680;49.936;11.344;2023-03-25T08:42:34;95968.69;;;9.13;77.30
25855;BME280;13680;49.936;11.344;2023-03-25T08:45:00;95952.50;;;8.96;77.85
25855;BME280;13680;49.936;11.344;2023-03-25T08:47:25;95952.53;;;9.05;77.80
25855;BME280;13680;49.936;11.344;2023-03-25T08:49:50;95954.00;;;9.20;76.42
25855;BME280;13680;49.936;11.344;2023-03-25T08:52:16;95953.94;;;9.42;75.62
25855;BME280;13680;49.936;11.344;2023-03-25T08:54:41;95956.47;;;9.47;75.63
25855;BME280;13680;49.936;11.344;2023-03-25T08:57:07;95958.44;;;9.24;74.02
25855;BME280;13680;49.936;11.344;2023-03-25T08:59:32;95960.34;;;9.32;73.84
25855;BME280;13680;49.936;11.344;2023-03-25T09:01:58;95957.78;;;9.68;73.81
25855;BME280;13680;49.936;11.344;2023-03-25T09:04:23;95967.19;;;9.47;73.33
25855;BME280;13680;49.936;11.344;2023-03-25T09:06:49;95962.94;;;9.46;73.56
25855;BME280;13680;49.936;11.344;2023-03-25T09:09:15;95958.59;;;9.77;73.17
25855;BME280;13680;49.936;11.344;2023-03-25T09:11:40;95967.28;;;8.84;77.14
25855;BME280;13680;49.936;11.344;2023-03-25T09:14:05;95962.16;;;9.06;77.07
25855;BME280;13680;49.936;11.344;2023-03-25T09:16:31;95974.03;;;9.62;75.49
25855;BME280;13680;49.936;11.344;2023-03-25T09:18:57;95973.38;;;9.48;76.32
25855;BME280;13680;49.936;11.344;2023-03-25T09:21:23;95972.63;;;9.16;78.92
25855;BME280;13680;49.936;11.344;2023-03-25T09:23:48;95973.16;;;8.95;78.76
25855;BME280;13680;49.936;11.344;2023-03-25T09:26:13;95971.22;;;9.27;78.79
25855;BME280;13680;49.936;11.344;2023-03-25T09:28:38;95973.94;;;8.96;79.83
25855;BME280;13680;49.936;11.344;2023-03-25T09:31:04;95969.56;;;8.46;79.68
25855;BME280;13680;49.936;11.344;2023-03-25T09:33:30;95968.91;;;9.03;80.73
25855;BME280;13680;49.936;11.344;2023-03-25T09:35:55;95959.25;;;9.33;78.33
25855;BME280;13680;49.936;11.344;2023-03-25T09:38:20;95944.41;;;9.85;77.74
25855;BME280;13680;49.936;11.344;2023-03-25T09:40:47;95947.59;;;10.40;77.69
25855;BME280;13680;49.936;11.344;2023-03-25T09:45:45;95946.06;;;10.86;73.08
25855;BME280;13680;49.936;11.344;2023-03-25T09:48:38;95937.47;;;11.02;70.06
25855;BME280;13680;49.936;11.344;2023-03-25T09:51:14;95945.34;;;10.59;70.11
25855;BME280;13680;49.936;11.344;2023-03-25T09:53:50;95948.78;;;10.69;72.76
25855;BME280;13680;49.936;11.344;2023-03-25T09:56:21;95946.91;;;10.69;70.12
25855;BME280;13680;49.936;11.344;2023-03-25T09:58:50;95952.47;;;10.46;68.25
25855;BME280;13680;49.936;11.344;2023-03-25T10:10:26;95941.53;;;10.25;67.94
25855;BME280;13680;49.936;11.344;2023-03-25T10:13:05;95950.56;;;10.21;66.04
25855;BME280;13680;49.936;11.344;2023-03-25T10:24:25;95948.41;;;10.96;65.31
25855;BME280;13680;49.936;11.344;2023-03-25T10:27:04;95944.25;;;10.52;65.70
25855;BME280;13680;49.936;11.344;2023-03-25T10:35:02;95932.88;;;10.11;63.88
25855;BME280;13680;49.936;11.344;2023-03-25T10:37:33;95933.47;;;10.34;63.74
25855;BME280;13680;49.936;11.344;2023-03-25T10:40:12;95919.03;;;10.74;62.81
25855;BME280;13680;49.936;11.344;2023-03-25T10:42:44;95908.81;;;11.06;63.01
25855;BME280;13680;49.936;11.344;2023-03-25T10:45:13;95911.25;;;11.28;60.27
25855;BME280;13680;49.936;11.344;2023-03-25T10:47:42;95906.56;;;11.17;60.56
25855;BME280;13680;49.936;11.344;2023-03-25T10:50:16;95894.50;;;11.74;60.49
25855;BME280;13680;49.936;11.344;2023-03-25T10:52:44;95890.38;;;12.52;59.56
25855;BME280;13680;49.936;11.344;2023-03-25T10:55:32;95887.22;;;12.50;56.63
25855;BME280;13680;49.936;11.344;2023-03-25T10:58:00;95882.81;;;13.53;57.13
25855;BME280;13680;49.936;11.344;2023-03-25T11:00:26;95870.66;;;13.35;54.73
25855;BME280;13680;49.936;11.344;2023-03-25T11:02:54;95878.22;;;12.46;54.43
25855;BME280;13680;49.936;11.344;2023-03-25T11:05:22;95877.50;;;12.83;54.91
25855;BME280;13680;49.936;11.344;2023-03-25T11:07:52;95876.50;;;11.87;54.45
25855;BME280;13680;49.936;11.344;2023-03-25T11:10:26;95870.97;;;11.83;54.72
25855;BME280;13680;49.936;11.344;2023-03-25T11:12:53;95864.19;;;11.35;56.88
25855;BME280;13680;49.936;11.344;2023-03-25T11:15:30;95878.66;;;11.21;57.16
25855;BME280;13680;49.936;11.344;2023-03-25T11:18:03;95884.00;;;11.30;58.04
25855;BME280;13680;49.936;11.344;2023-03-25T11:20:36;95868.84;;;11.25;60.27
25855;BME280;13680;49.936;11.344;2023-03-25T11:23:20;95899.69;;;10.89;64.34
25855;BME280;13680;49.936;11.344;2023-03-25T11:25:46;95876.09;;;11.55;62.46
25855;BME280;13680;49.936;11.344;2023-03-25T11:28:18;95859.94;;;11.76;61.75
25855;BME280;13680;49.936;11.344;2023-03-25T11:31:06;95861.34;;;12.37;59.54
25855;BME280;13680;49.936;11.344;2023-03-25T11:33:33;95850.13;;;11.92;57.45
25855;BME280;13680;49.936;11.344;2023-03-25T11:36:24;95834.66;;;12.93;57.72
25855;BME280;13680;49.936;11.344;2023-03-25T11:38:55;95833.56;;;13.07;57.38
25855;BME280;13680;49.936;11.344;2023-03-25T11:41:21;95836.13;;;12.79;56.95
25855;BME280;13680;49.936;11.344;2023-03-25T11:43:48;95854.16;;;12.41;56.74
25855;BME280;13680;49.936;11.344;2023-03-25T11:46:16;95845.13;;;12.24;58.25
25855;BME280;13680;49.936;11.344;2023-03-25T11:48:44;95841.81;;;12.06;58.16
25855;BME280;13680;49.936;11.344;2023-03-25T11:51:27;95858.38;;;11.96;60.68
25855;BME280;13680;49.936;11.344;2023-03-25T11:53:56;95867.97;;;11.63;63.25
25855;BME280;13680;49.936;11.344;2023-03-25T11:56:28;95861.13;;;12.42;63.37
25855;BME280;13680;49.936;11.344;2023-03-25T11:58:58;95856.50;;;13.25;62.65
25855;BME280;13680;49.936;11.344;2023-03-25T12:01:28;95844.09;;;13.49;61.93
25855;BME280;13680;49.936;11.344;2023-03-25T12:04:14;95851.44;;;13.89;58.27
25855;BME280;13680;49.936;11.344;2023-03-25T12:07:03;95844.53;;;14.49;57.34
25855;BME280;13680;49.936;11.344;2023-03-25T12:09:33;95875.94;;;13.19;58.27
25855;BME280;13680;49.936;11.344;2023-03-25T12:12:20;95852.13;;;11.41;64.35
25855;BME280;13680;49.936;11.344;2023-03-25T12:14:59;95860.53;;;10.71;64.47
25855;BME280;13680;49.936;11.344;2023-03-25T12:26:06;95856.13;;;11.05;66.45
25855;BME280;13680;49.936;11.344;2023-03-25T12:31:22;95875.50;;;10.15;69.52
25855;BME280;13680;49.936;11.344;2023-03-25T12:39:37;95860.56;;;11.01;69.36
25855;BME280;13680;49.936;11.344;2023-03-25T12:42:48;95851.66;;;11.39;70.11
25855;BME280;13680;49.936;11.344;2023-03-25T12:53:20;95850.34;;;10.29;68.59
25855;BME280;13680;49.936;11.344;2023-03-25T12:58:34;95869.47;;;10.27;69.42
25855;BME280;13680;49.936;11.344;2023-03-25T13:08:49;95888.38;;;10.66;68.08
25855;BME280;13680;49.936;11.344;2023-03-25T13:11:46;95897.31;;;11.56;66.96
25855;BME280;13680;49.936;11.344;2023-03-25T13:14:20;95884.91;;;12.40;63.87
25855;BME280;13680;49.936;11.344;2023-03-25T13:16:50;95884.63;;;13.49;56.56
25855;BME280;13680;49.936;11.344;2023-03-25T13:19:19;95880.16;;;14.22;55.84
25855;BME280;13680;49.936;11.344;2023-03-25T13:22:00;95881.59;;;13.38;55.19
25855;BME280;13680;49.936;11.344;2023-03-25T13:24:49;95877.97;;;13.47;56.05
25855;BME280;13680;49.936;11.344;2023-03-25T13:27:16;95878.09;;;13.13;56.02
25855;BME280;13680;49.936;11.344;2023-03-25T13:29:46;95874.16;;;13.60;55.02
25855;BME280;13680;49.936;11.344;2023-03-25T13:32:26;95855.13;;;13.69;56.00
25855;BME280;13680;49.936;11.344;2023-03-25T13:35:07;95872.38;;;12.44;58.28
25855;BME280;13680;49.936;11.344;2023-03-25T13:37:45;95868.38;;;11.95;59.37
25855;BME280;13680;49.936;11.344;2023-03-25T13:40:21;95877.50;;;11.31;59.91
25855;BME280;13680;49.936;11.344;2023-03-25T13:45:30;95879.72;;;10.99;61.86
25855;BME280;13680;49.936;11.344;2023-03-25T13:48:10;95868.25;;;11.11;61.57
25855;BME280;13680;49.936;11.344;2023-03-25T13:50:38;95871.56;;;10.78;63.90
25855;BME280;13680;49.936;11.344;2023-03-25T13:53:14;95885.44;;;10.50;65.90
25855;BME280;13680;49.936;11.344;2023-03-25T14:04:08;95881.97;;;10.23;67.84
25855;BME280;13680;49.936;11.344;2023-03-25T14:07:07;95883.13;;;11.68;65.68
25855;BME280;13680;49.936;11.344;2023-03-25T14:10:27;95872.22;;;13.48;60.59
25855;BME280;13680;49.936;11.344;2023-03-25T14:12:56;95875.69;;;13.61;56.34
25855;BME280;13680;49.936;11.344;2023-03-25T14:15:29;95877.66;;;13.89;55.82
25855;BME280;13680;49.936;11.344;2023-03-25T14:17:56;95871.56;;;14.33;53.79
25855;BME280;13680;49.936;11.344;2023-03-25T14:20:30;95871.72;;;15.16;52.46
25855;BME280;13680;49.936;11.344;2023-03-25T14:23:00;95864.22;;;16.59;49.01
25855;BME280;13680;49.936;11.344;2023-03-25T14:25:39;95855.78;;;16.22;49.90
25855;BME280;13680;49.936;11.344;2023-03-25T14:28:07;95874.69;;;15.27;51.27
25855;BME280;13680;49.936;11.344;2023-03-25T14:30:36;95869.38;;;12.70;57.81
25855;BME280;13680;49.936;11.344;2023-03-25T14:33:02;95855.03;;;12.33;60.16
25855;BME280;13680;49.936;11.344;2023-03-25T14:43:24;95852.13;;;12.38;61.36
25855;BME280;13680;49.936;11.344;2023-03-25T14:53:59;95865.06;;;11.69;63.38
25855;BME280;13680;49.936;11.344;2023-03-25T14:56:37;95864.63;;;11.16;64.69
25855;BME280;13680;49.936;11.344;2023-03-25T14:59:16;95862.03;;;10.89;65.52
25855;BME280;13680;49.936;11.344;2023-03-25T15:01:44;95858.56;;;11.19;66.02
25855;BME280;13680;49.936;11.344;2023-03-25T15:04:14;95859.88;;;11.85;63.58
25855;BME280;13680;49.936;11.344;2023-03-25T15:06:41;95853.75;;;12.18;62.39